Time;durP1;ratioP1;P1;durP2;ratioP2;P2;SDS_P1;SDS_P2;PMS_P1;PMS_P2;Temp;Humidity;BMP_temperature;BMP_pressure;BME280_temperature;BME280_humidity;BME280_pressure;Samples;Min_cycle;Max_cycle;Signal;HPM_P1;HPM_P2
2022/09/19 00:00:11;;;;;;;2.15;0.70;;;;;;;;;;4560569;28;20036;-64
2022/09/19 00:02:21;;;;;;;1.63;0.50;;;;;;;;;;4561260;28;20020;-64
2022/09/19 00:04:32;;;;;;;1.67;0.50;;;;;;;;;;4546462;28;20184;-64
2022/09/19 00:06:44;;;;;;;1.70;0.60;;;;;;;;;;4560372;28;20052;-64
2022/09/19 00:08:56;;;;;;;1.17;0.47;;;;;;;;;;4558999;28;20045;-63
2022/09/19 00:11:06;;;;;;;1.95;0.55;;;;;;;;;;4558771;28;20861;-64
2022/09/19 00:13:17;;;;;;;1.33;0.47;;;;;;;;;;4548047;28;20068;-64
2022/09/19 00:15:28;;;;;;;1.40;0.70;;;;;;;;;;4558588;28;20039;-64
2022/09/19 00:17:38;;;;;;;1.30;0.70;;;;;;;;;;4561647;28;21256;-63
2022/09/19 00:19:49;;;;;;;1.48;0.60;;;;;;;;;;4560821;28;20032;-64
2022/09/19 00:22:01;;;;;;;2.33;0.70;;;;;;;;;;4560314;27;28261;-63
2022/09/19 00:26:47;;;;;;;1.35;0.70;;;;;;;;;;4561798;28;20036;-63
2022/09/19 00:28:58;;;;;;;1.08;0.40;;;;;;;;;;4562820;28;20317;-64
2022/09/19 00:31:15;;;;;;;1.30;0.52;;;;;;;;;;4561676;28;20033;-64
2022/09/19 00:33:27;;;;;;;1.85;0.60;;;;;;;;;;4562825;28;20616;-64
2022/09/19 00:35:38;;;;;;;1.85;0.80;;;;;;;;;;4560245;28;20032;-64
2022/09/19 00:37:48;;;;;;;1.83;0.55;;;;;;;;;;4562473;28;20036;-64
2022/09/19 00:39:59;;;;;;;2.30;0.68;;;;;;;;;;4561638;28;20368;-64
2022/09/19 00:42:22;;;;;;;2.20;0.57;;;;;;;;;;4558386;28;20108;-64
2022/09/19 00:44:33;;;;;;;1.13;0.57;;;;;;;;;;4568979;28;21211;-64
2022/09/19 00:46:44;;;;;;;1.58;0.60;;;;;;;;;;4560935;28;20034;-64
2022/09/19 00:49:03;;;;;;;1.67;0.60;;;;;;;;;;4558328;28;20099;-65
2022/09/19 00:51:38;;;;;;;1.40;0.65;;;;;;;;;;4561042;28;20754;-64
2022/09/19 00:53:49;;;;;;;1.85;0.60;;;;;;;;;;4548338;28;20055;-62
2022/09/19 00:56:00;;;;;;;1.60;0.50;;;;;;;;;;4561052;28;20040;-62
2022/09/19 00:58:18;;;;;;;1.65;0.80;;;;;;;;;;4564801;28;20028;-62
2022/09/19 01:00:29;;;;;;;1.88;0.63;;;;;;;;;;4562940;28;20032;-62
2022/09/19 01:02:41;;;;;;;2.90;0.80;;;;;;;;;;4578862;27;20760;-63
2022/09/19 01:04:51;;;;;;;1.45;0.70;;;;;;;;;;4562925;28;20031;-63
2022/09/19 01:07:14;;;;;;;2.30;0.82;;;;;;;;;;4562513;27;20041;-63
2022/09/19 01:09:43;;;;;;;2.40;0.70;;;;;;;;;;4565883;28;20059;-64
2022/09/19 01:12:21;;;;;;;2.38;0.75;;;;;;;;;;4565018;28;20143;-64
2022/09/19 01:14:46;;;;;;;2.45;0.73;;;;;;;;;;4563812;28;20059;-63
2022/09/19 01:17:16;;;;;;;1.50;0.70;;;;;;;;;;4548504;28;20040;-64
2022/09/19 01:19:58;;;;;;;1.52;0.80;;;;;;;;;;4565230;28;20514;-63
2022/09/19 01:22:41;;;;;;;4.45;1.10;;;;;;;;;;4566289;28;20105;-63
2022/09/19 01:25:16;;;;;;;1.55;0.70;;;;;;;;;;4561798;28;20062;-63
2022/09/19 01:28:06;;;;;;;3.47;0.80;;;;;;;;;;4516364;28;20044;-63
2022/09/19 01:30:18;;;;;;;2.28;0.90;;;;;;;;;;4579367;27;20024;-64
2022/09/19 01:32:33;;;;;;;1.60;0.90;;;;;;;;;;4571697;28;20028;-64
2022/09/19 01:34:46;;;;;;;1.40;0.90;;;;;;;;;;4548407;28;20096;-64
2022/09/19 01:37:05;;;;;;;2.10;0.80;;;;;;;;;;4545317;28;20616;-64
2022/09/19 01:39:23;;;;;;;1.98;0.80;;;;;;;;;;4552768;28;20041;-64
2022/09/19 01:41:36;;;;;;;2.10;0.75;;;;;;;;;;4570553;28;20020;-64
2022/09/19 01:43:49;;;;;;;1.63;0.70;;;;;;;;;;4548702;28;21009;-64
2022/09/19 01:46:11;;;;;;;1.83;0.95;;;;;;;;;;4563712;28;20047;-64
2022/09/19 01:48:37;;;;;;;1.98;1.00;;;;;;;;;;4555353;28;20033;-64
2022/09/19 01:51:05;;;;;;;2.63;0.82;;;;;;;;;;4549012;28;20064;-63
2022/09/19 01:53:33;;;;;;;2.38;0.98;;;;;;;;;;4572856;27;20799;-64
2022/09/19 01:56:05;;;;;;;2.42;0.90;;;;;;;;;;4562944;28;20040;-64
2022/09/19 01:58:22;;;;;;;3.55;1.10;;;;;;;;;;4572207;27;20135;-64
2022/09/19 02:00:34;;;;;;;1.83;0.90;;;;;;;;;;4561620;28;20036;-64
2022/09/19 02:03:23;;;;;;;2.35;1.00;;;;;;;;;;4555528;28;20699;-64
2022/09/19 02:05:55;;;;;;;1.35;0.70;;;;;;;;;;4537590;28;20584;-64
2022/09/19 02:08:16;;;;;;;1.73;0.63;;;;;;;;;;4546083;28;20086;-64
2022/09/19 02:10:54;;;;;;;2.08;0.80;;;;;;;;;;4560934;28;20066;-64
2022/09/19 02:13:09;;;;;;;2.40;1.00;;;;;;;;;;4553881;28;20165;-64
2022/09/19 02:15:34;;;;;;;1.98;1.00;;;;;;;;;;4562321;28;20048;-64
2022/09/19 02:17:53;;;;;;;1.80;1.10;;;;;;;;;;4558288;28;20037;-64
2022/09/19 02:20:07;;;;;;;2.78;0.90;;;;;;;;;;4552962;28;20726;-64
2022/09/19 02:22:33;;;;;;;2.35;1.20;;;;;;;;;;4561793;28;20024;-64
2022/09/19 02:24:45;;;;;;;2.15;0.88;;;;;;;;;;4570650;28;20039;-64
2022/09/19 02:27:00;;;;;;;1.30;0.80;;;;;;;;;;4544725;28;20055;-64
2022/09/19 02:29:13;;;;;;;2.88;0.95;;;;;;;;;;4544048;28;20032;-64
2022/09/19 02:31:26;;;;;;;2.05;0.95;;;;;;;;;;4562194;28;21009;-64
2022/09/19 02:33:39;;;;;;;2.72;1.00;;;;;;;;;;4563889;28;20343;-64
2022/09/19 02:35:56;;;;;;;2.13;0.95;;;;;;;;;;4570839;27;20627;-64
2022/09/19 02:38:30;;;;;;;2.72;1.08;;;;;;;;;;4561660;28;20119;-64
2022/09/19 02:40:49;;;;;;;2.83;1.00;;;;;;;;;;4552674;28;20045;-64
2022/09/19 02:43:14;;;;;;;2.63;1.00;;;;;;;;;;4562907;27;20117;-64
2022/09/19 02:45:32;;;;;;;1.90;1.10;;;;;;;;;;4547130;28;20036;-64
2022/09/19 02:47:56;;;;;;;2.28;0.90;;;;;;;;;;4554251;28;20033;-64
2022/09/19 02:50:17;;;;;;;2.00;1.00;;;;;;;;;;4561682;28;20576;-64
2022/09/19 02:52:30;;;;;;;2.22;1.00;;;;;;;;;;4552443;28;20032;-64
2022/09/19 02:54:48;;;;;;;1.58;1.10;;;;;;;;;;4564474;28;20068;-64
2022/09/19 02:57:04;;;;;;;1.63;1.00;;;;;;;;;;4563366;28;20118;-64
2022/09/19 02:59:20;;;;;;;2.47;1.00;;;;;;;;;;4569903;28;20028;-64
2022/09/19 03:01:40;;;;;;;1.90;0.93;;;;;;;;;;4570161;28;20032;-64
2022/09/19 03:04:13;;;;;;;2.08;0.90;;;;;;;;;;4562850;28;20549;-64
2022/09/19 03:06:32;;;;;;;2.28;0.80;;;;;;;;;;4569946;28;20028;-64
2022/09/19 03:08:45;;;;;;;2.08;0.77;;;;;;;;;;4563682;28;20072;-64
2022/09/19 03:10:58;;;;;;;1.23;0.80;;;;;;;;;;4569716;28;20976;-64
2022/09/19 03:13:18;;;;;;;1.65;0.75;;;;;;;;;;4553939;28;20021;-64
2022/09/19 03:15:36;;;;;;;3.20;1.02;;;;;;;;;;4547357;28;20020;-64
2022/09/19 03:17:49;;;;;;;1.77;0.80;;;;;;;;;;4547983;28;20194;-64
2022/09/19 03:20:01;;;;;;;1.77;0.75;;;;;;;;;;4562414;28;20115;-64
2022/09/19 03:22:19;;;;;;;1.65;0.80;;;;;;;;;;4562611;28;20045;-64
2022/09/19 03:24:30;;;;;;;1.48;0.60;;;;;;;;;;4560954;27;20033;-64
2022/09/19 03:26:40;;;;;;;1.65;0.70;;;;;;;;;;4528083;28;20064;-64
2022/09/19 03:28:54;;;;;;;2.20;0.90;;;;;;;;;;4563565;28;20887;-64
2022/09/19 03:31:08;;;;;;;1.17;0.70;;;;;;;;;;4562470;28;20548;-64
2022/09/19 03:33:18;;;;;;;3.05;0.95;;;;;;;;;;4570178;28;20028;-64
2022/09/19 03:35:29;;;;;;;1.52;0.75;;;;;;;;;;4561706;28;20038;-64
2022/09/19 03:37:39;;;;;;;2.38;0.82;;;;;;;;;;4562564;28;20032;-64
2022/09/19 03:39:50;;;;;;;2.42;0.90;;;;;;;;;;4545575;28;20048;-64
2022/09/19 03:42:00;;;;;;;2.05;1.08;;;;;;;;;;4562197;28;20044;-65
2022/09/19 03:44:14;;;;;;;2.67;1.00;;;;;;;;;;4561176;28;20039;-65
2022/09/19 03:46:26;;;;;;;2.85;1.10;;;;;;;;;;4570018;27;20058;-64
2022/09/19 03:48:44;;;;;;;3.05;1.30;;;;;;;;;;4563977;28;20036;-65
2022/09/19 03:50:54;;;;;;;3.22;1.35;;;;;;;;;;4568764;28;20113;-64
2022/09/19 03:53:06;;;;;;;2.20;1.10;;;;;;;;;;4562283;28;20090;-64
2022/09/19 03:55:18;;;;;;;2.70;1.15;;;;;;;;;;4563967;28;20036;-64
2022/09/19 03:57:30;;;;;;;3.10;0.90;;;;;;;;;;4562778;28;20048;-64
2022/09/19 03:59:42;;;;;;;5.57;1.27;;;;;;;;;;4568743;28;20031;-65
2022/09/19 04:01:54;;;;;;;3.78;1.55;;;;;;;;;;4563012;27;20040;-65
2022/09/19 04:04:05;;;;;;;4.03;1.73;;;;;;;;;;4561761;28;20900;-64
2022/09/19 04:06:17;;;;;;;3.92;1.80;;;;;;;;;;4569472;28;20066;-64
2022/09/19 04:08:28;;;;;;;4.47;1.65;;;;;;;;;;4561899;28;20445;-65
2022/09/19 04:10:42;;;;;;;2.60;1.40;;;;;;;;;;4543645;28;20037;-65
2022/09/19 04:12:52;;;;;;;2.92;1.60;;;;;;;;;;4560472;28;20647;-65
2022/09/19 04:15:04;;;;;;;3.53;1.52;;;;;;;;;;4562295;28;20102;-65
2022/09/19 04:17:15;;;;;;;3.72;1.40;;;;;;;;;;4541729;28;20041;-65
2022/09/19 04:19:26;;;;;;;3.17;1.30;;;;;;;;;;4558784;28;20059;-64
2022/09/19 04:22:06;;;;;;;2.35;1.33;;;;;;;;;;4558811;28;20071;-65
2022/09/19 04:24:29;;;;;;;2.95;1.20;;;;;;;;;;4543690;28;20036;-65
2022/09/19 04:27:06;;;;;;;2.47;1.00;;;;;;;;;;4530264;28;20136;-65
2022/09/19 04:29:19;;;;;;;;;;;;;;;;;;4559967;28;20033;-65
2022/09/19 04:31:39;;;;;;;2.53;1.10;;;;;;;;;;4561769;27;19963;-65
2022/09/19 04:33:50;;;;;;;2.33;0.95;;;;;;;;;;4566251;28;20029;-66
2022/09/19 04:36:04;;;;;;;2.70;0.93;;;;;;;;;;4566371;28;20591;-65
2022/09/19 04:38:17;;;;;;;1.60;0.80;;;;;;;;;;4565090;28;20578;-65
2022/09/19 04:40:29;;;;;;;2.45;0.90;;;;;;;;;;4560748;28;20087;-65
2022/09/19 04:42:41;;;;;;;1.80;0.80;;;;;;;;;;4564676;28;20031;-64
2022/09/19 04:44:53;;;;;;;2.20;0.77;;;;;;;;;;4562897;28;20067;-65
2022/09/19 04:47:20;;;;;;;2.42;0.85;;;;;;;;;;4565689;28;20151;-65
2022/09/19 04:49:36;;;;;;;1.80;0.70;;;;;;;;;;4565642;28;20033;-65
2022/09/19 04:51:46;;;;;;;1.65;0.70;;;;;;;;;;4561477;28;20141;-64
2022/09/19 04:53:59;;;;;;;1.27;0.60;;;;;;;;;;4564792;28;20094;-64
2022/09/19 04:56:11;;;;;;;2.45;0.95;;;;;;;;;;4562858;28;20811;-65
2022/09/19 04:58:23;;;;;;;1.45;0.90;;;;;;;;;;4571706;28;20044;-65
2022/09/19 05:00:38;;;;;;;2.17;0.95;;;;;;;;;;4572370;28;20036;-65
2022/09/19 05:02:55;;;;;;;2.08;0.98;;;;;;;;;;4572095;28;20158;-65
2022/09/19 05:05:06;;;;;;;3.03;1.30;;;;;;;;;;4563098;28;20119;-65
2022/09/19 05:07:19;;;;;;;2.33;1.10;;;;;;;;;;4555470;28;20033;-64
2022/09/19 05:09:30;;;;;;;1.80;1.02;;;;;;;;;;4561098;28;20030;-65
2022/09/19 05:11:46;;;;;;;3.30;1.30;;;;;;;;;;4549075;28;20033;-65
2022/09/19 05:14:00;;;;;;;2.33;1.20;;;;;;;;;;4572656;28;20039;-65
2022/09/19 05:16:13;;;;;;;3.10;1.33;;;;;;;;;;4564394;28;20032;-65
2022/09/19 05:18:28;;;;;;;1.48;1.13;;;;;;;;;;4566499;28;20040;-65
2022/09/19 05:20:39;;;;;;;2.35;1.10;;;;;;;;;;4555635;28;20075;-66
2022/09/19 05:22:49;;;;;;;2.08;1.40;;;;;;;;;;4566797;28;20116;-65
2022/09/19 05:25:03;;;;;;;2.47;1.60;;;;;;;;;;4564947;27;20425;-65
2022/09/19 05:27:13;;;;;;;3.50;1.77;;;;;;;;;;4571852;28;20648;-66
2022/09/19 05:29:24;;;;;;;3.42;2.03;;;;;;;;;;4563271;28;20112;-65
2022/09/19 05:31:46;;;;;;;4.30;3.08;;;;;;;;;;4577290;27;20028;-66
2022/09/19 05:34:20;;;;;;;3.88;2.10;;;;;;;;;;4554423;28;20229;-65
2022/09/19 05:36:31;;;;;;;3.00;1.98;;;;;;;;;;4563848;28;20035;-67
2022/09/19 05:38:58;;;;;;;2.45;1.60;;;;;;;;;;4565282;28;20061;-66
2022/09/19 05:41:44;;;;;;;2.25;1.13;;;;;;;;;;4516572;28;21287;-66
2022/09/19 05:44:01;;;;;;;2.42;1.00;;;;;;;;;;4549816;28;20118;-66
2022/09/19 05:46:11;;;;;;;2.42;1.08;;;;;;;;;;4572268;28;20090;-66
2022/09/19 05:48:26;;;;;;;2.72;1.35;;;;;;;;;;4565067;28;20078;-66
2022/09/19 05:50:36;;;;;;;2.60;1.42;;;;;;;;;;4562450;28;20042;-65
2022/09/19 05:55:21;;;;;;;3.22;0.80;;;;;;;;;;4560588;28;20181;-65
2022/09/19 05:57:40;;;;;;;1.75;0.80;;;;;;;;;;4563072;28;20592;-66
2022/09/19 05:59:50;;;;;;;0.90;0.50;;;;;;;;;;4571434;27;20024;-66
2022/09/19 06:02:01;;;;;;;2.20;0.90;;;;;;;;;;4564023;28;20036;-65
2022/09/19 06:04:44;;;;;;;2.85;0.90;;;;;;;;;;4534381;28;20042;-65
2022/09/19 06:06:54;;;;;;;2.40;1.10;;;;;;;;;;4565315;28;20031;-64
2022/09/19 06:09:05;;;;;;;2.30;0.77;;;;;;;;;;4570699;28;20486;-64
2022/09/19 06:11:20;;;;;;;2.35;0.90;;;;;;;;;;4565917;28;20657;-63
2022/09/19 06:16:00;;;;;;;2.08;0.82;;;;;;;;;;4569747;28;20764;-63
2022/09/19 06:18:41;;;;;;;1.98;0.80;;;;;;;;;;4562413;28;20044;-62
2022/09/19 06:20:56;;;;;;;1.40;0.80;;;;;;;;;;4576042;27;20032;-62
2022/09/19 06:23:13;;;;;;;2.53;0.90;;;;;;;;;;4563440;28;20197;-63
2022/09/19 06:25:25;;;;;;;2.90;1.17;;;;;;;;;;4560615;28;20035;-63
2022/09/19 06:27:36;;;;;;;3.13;1.20;;;;;;;;;;4570843;28;20588;-63
2022/09/19 06:29:47;;;;;;;1.73;0.90;;;;;;;;;;4561739;28;20044;-63
2022/09/19 06:32:06;;;;;;;2.30;1.20;;;;;;;;;;4561958;28;20025;-63
2022/09/19 06:34:22;;;;;;;1.50;1.02;;;;;;;;;;4565296;28;20098;-63
2022/09/19 06:36:34;;;;;;;1.88;0.95;;;;;;;;;;4564490;27;20035;-63
2022/09/19 06:38:44;;;;;;;4.70;1.02;;;;;;;;;;4564368;28;20051;-63
2022/09/19 06:41:10;;;;;;;2.65;1.25;;;;;;;;;;4562754;28;20039;-64
2022/09/19 06:43:46;;;;;;;1.17;0.90;;;;;;;;;;4534458;28;20046;-63
2022/09/19 06:46:18;;;;;;;2.00;1.00;;;;;;;;;;4539798;28;20284;-64
2022/09/19 06:48:55;;;;;;;1.73;0.80;;;;;;;;;;4559467;28;20623;-64
2022/09/19 06:51:29;;;;;;;2.25;1.10;;;;;;;;;;4532068;28;20915;-63
2022/09/19 06:53:39;;;;;;;2.03;1.00;;;;;;;;;;4569182;27;20040;-63
2022/09/19 06:55:52;;;;;;;3.20;1.00;;;;;;;;;;4554208;28;20304;-64
2022/09/19 06:58:06;;;;;;;1.45;0.80;;;;;;;;;;4549227;28;20198;-64
2022/09/19 07:00:19;;;;;;;2.22;1.00;;;;;;;;;;4546467;28;20025;-64
2022/09/19 07:02:30;;;;;;;1.42;0.70;;;;;;;;;;4562112;28;20025;-64
2022/09/19 07:04:40;;;;;;;1.65;0.75;;;;;;;;;;4560057;28;20028;-63
2022/09/19 07:07:10;;;;;;;1.50;0.70;;;;;;;;;;4560430;28;20123;-63
2022/09/19 07:09:28;;;;;;;2.40;0.90;;;;;;;;;;4563702;28;20090;-63
2022/09/19 07:11:38;;;;;;;2.28;1.00;;;;;;;;;;4569188;28;20087;-63
2022/09/19 07:13:50;;;;;;;2.28;1.05;;;;;;;;;;4543363;28;20905;-63
2022/09/19 07:16:03;;;;;;;2.03;1.00;;;;;;;;;;4563368;28;20390;-63
2022/09/19 07:18:14;;;;;;;3.40;1.02;;;;;;;;;;4569789;27;20294;-63
2022/09/19 07:20:28;;;;;;;3.15;1.20;;;;;;;;;;4560621;28;20028;-63
2022/09/19 07:22:41;;;;;;;1.85;0.90;;;;;;;;;;4561471;28;20047;-63
2022/09/19 07:25:13;;;;;;;1.98;0.90;;;;;;;;;;4560054;28;20032;-63
2022/09/19 07:27:31;;;;;;;3.00;1.08;;;;;;;;;;4563609;28;20787;-63
2022/09/19 07:29:42;;;;;;;2.72;1.20;;;;;;;;;;4559889;28;20607;-63
2022/09/19 07:31:52;;;;;;;2.60;1.10;;;;;;;;;;4546211;28;20115;-64
2022/09/19 07:34:03;;;;;;;2.00;1.05;;;;;;;;;;4562153;28;20494;-64
2022/09/19 07:36:15;;;;;;;2.63;1.10;;;;;;;;;;4546694;28;20742;-63
2022/09/19 07:38:29;;;;;;;1.75;1.00;;;;;;;;;;4561920;28;20600;-64
2022/09/19 07:40:54;;;;;;;2.88;1.10;;;;;;;;;;4548213;28;20043;-64
2022/09/19 07:43:12;;;;;;;3.60;0.90;;;;;;;;;;4552421;28;21030;-64
2022/09/19 07:45:53;;;;;;;1.75;0.90;;;;;;;;;;4568474;28;20373;-64
2022/09/19 07:48:24;;;;;;;1.48;0.73;;;;;;;;;;4560702;28;20272;-64
2022/09/19 07:50:48;;;;;;;3.33;1.02;;;;;;;;;;4551997;28;20039;-63
2022/09/19 07:53:17;;;;;;;2.58;0.70;;;;;;;;;;4569579;28;20562;-63
2022/09/19 07:55:28;;;;;;;1.80;0.85;;;;;;;;;;4569512;28;20028;-63
2022/09/19 07:57:49;;;;;;;2.15;1.02;;;;;;;;;;4559818;28;20617;-62
2022/09/19 08:00:00;;;;;;;1.92;1.10;;;;;;;;;;4560847;28;20016;-62
2022/09/19 08:02:11;;;;;;;3.22;1.00;;;;;;;;;;4557688;28;20037;-61
2022/09/19 08:04:23;;;;;;;3.30;1.10;;;;;;;;;;4528349;28;20133;-63
2022/09/19 08:06:39;;;;;;;1.92;0.95;;;;;;;;;;4560695;28;20105;-62
2022/09/19 08:08:51;;;;;;;2.05;0.80;;;;;;;;;;4562141;28;20052;-66
2022/09/19 08:11:21;;;;;;;2.85;1.00;;;;;;;;;;4549457;27;20036;-63
2022/09/19 08:13:32;;;;;;;3.38;0.90;;;;;;;;;;4536646;28;20058;-65
2022/09/19 08:15:44;;;;;;;2.60;1.10;;;;;;;;;;4560160;28;20033;-64
2022/09/19 08:17:57;;;;;;;3.10;0.90;;;;;;;;;;4532827;28;20091;-65
2022/09/19 08:20:07;;;;;;;2.50;0.90;;;;;;;;;;4545306;28;21643;-67
2022/09/19 08:22:24;;;;;;;1.75;0.82;;;;;;;;;;4568724;28;20123;-65
2022/09/19 08:24:40;;;;;;;1.80;0.80;;;;;;;;;;4559180;28;20040;-65
2022/09/19 08:26:58;;;;;;;2.20;0.80;;;;;;;;;;4562028;28;20133;-65
2022/09/19 08:29:08;;;;;;;2.70;0.90;;;;;;;;;;4559432;28;20180;-65
2022/09/19 08:31:30;;;;;;;1.98;0.80;;;;;;;;;;4557459;28;20028;-65
2022/09/19 08:33:40;;;;;;;1.73;0.90;;;;;;;;;;4561363;28;21000;-65
2022/09/19 08:35:52;;;;;;;2.40;0.82;;;;;;;;;;4567844;28;20569;-65
2022/09/19 08:38:11;;;;;;;2.45;1.08;;;;;;;;;;4545185;28;20143;-65
2022/09/19 08:40:29;;;;;;;3.10;1.10;;;;;;;;;;4543660;28;20033;-66
2022/09/19 08:42:53;;;;;;;1.83;1.00;;;;;;;;;;4557264;28;20036;-66
2022/09/19 08:45:40;;;;;;;1.55;0.63;;;;;;;;;;4541321;28;20124;-65
2022/09/19 08:47:51;;;;;;;2.10;0.88;;;;;;;;;;4550186;28;20047;-65
2022/09/19 08:50:09;;;;;;;3.55;0.88;;;;;;;;;;4541643;28;20040;-65
2022/09/19 08:52:44;;;;;;;2.05;0.93;;;;;;;;;;4557410;28;20036;-65
2022/09/19 08:54:57;;;;;;;1.52;0.85;;;;;;;;;;4551844;28;20090;-65
2022/09/19 08:57:29;;;;;;;1.75;0.70;;;;;;;;;;4556969;28;20048;-65
2022/09/19 08:59:46;;;;;;;3.50;0.80;;;;;;;;;;4558846;28;20128;-65
2022/09/19 09:02:01;;;;;;;1.50;0.90;;;;;;;;;;4567523;28;20524;-65
2022/09/19 09:04:31;;;;;;;1.43;0.70;;;;;;;;;;4552453;28;20125;-65
2022/09/19 09:07:24;;;;;;;2.45;0.90;;;;;;;;;;4574363;27;20180;-65
2022/09/19 09:10:13;;;;;;;3.38;1.00;;;;;;;;;;4558902;28;20198;-66
2022/09/19 09:12:35;;;;;;;1.88;0.82;;;;;;;;;;4557429;28;20641;-67
2022/09/19 09:15:11;;;;;;;2.97;0.80;;;;;;;;;;4557760;28;20024;-65
2022/09/19 09:17:28;;;;;;;1.50;0.90;;;;;;;;;;4552496;28;20048;-65
2022/09/19 09:20:21;;;;;;;1.83;0.85;;;;;;;;;;4562065;28;20090;-65
2022/09/19 09:22:46;;;;;;;2.90;1.17;;;;;;;;;;4550477;28;20098;-65
2022/09/19 09:25:18;;;;;;;1.77;0.80;;;;;;;;;;4571092;28;20163;-65
2022/09/19 09:27:42;;;;;;;1.45;0.60;;;;;;;;;;4554176;28;20148;-65
2022/09/19 09:30:04;;;;;;;2.25;0.80;;;;;;;;;;4552351;28;20028;-66
2022/09/19 09:32:30;;;;;;;3.03;0.80;;;;;;;;;;4544757;28;20039;-66
2022/09/19 09:34:56;;;;;;;2.00;0.80;;;;;;;;;;4554574;28;20043;-66
2022/09/19 09:37:19;;;;;;;1.48;0.70;;;;;;;;;;4554539;28;20107;-65
2022/09/19 09:39:49;;;;;;;1.75;0.60;;;;;;;;;;4547954;28;20081;-66
2022/09/19 09:42:03;;;;;;;2.33;0.63;;;;;;;;;;4548400;28;20141;-66
2022/09/19 09:44:42;;;;;;;1.05;0.55;;;;;;;;;;4578150;27;20036;-66
2022/09/19 09:47:18;;;;;;;2.30;0.57;;;;;;;;;;4547753;28;20060;-66
2022/09/19 09:49:30;;;;;;;1.35;0.50;;;;;;;;;;4547905;28;20044;-66
2022/09/19 09:52:07;;;;;;;2.85;0.70;;;;;;;;;;4570722;28;20032;-66
2022/09/19 09:57:36;;;;;;;2.97;0.70;;;;;;;;;;4545682;28;22316;-66
2022/09/19 10:05:36;;;;;;;3.10;0.68;;;;;;;;;;4565478;28;20048;-66
2022/09/19 10:08:18;;;;;;;2.95;0.88;;;;;;;;;;4570533;28;20043;-66
2022/09/19 10:10:30;;;;;;;1.05;0.55;;;;;;;;;;4540948;28;20095;-67
2022/09/19 10:13:08;;;;;;;2.80;0.80;;;;;;;;;;4544280;28;20021;-66
2022/09/19 10:15:21;;;;;;;1.70;0.70;;;;;;;;;;4559110;28;20222;-65
2022/09/19 10:17:39;;;;;;;2.83;0.70;;;;;;;;;;4550893;28;20040;-66
2022/09/19 10:19:55;;;;;;;1.45;0.50;;;;;;;;;;4554305;28;20130;-67
2022/09/19 10:22:15;;;;;;;2.65;0.70;;;;;;;;;;4570064;28;20031;-66
2022/09/19 10:24:53;;;;;;;2.03;0.60;;;;;;;;;;4559858;28;20047;-66
2022/09/19 10:27:24;;;;;;;1.90;0.80;;;;;;;;;;4554255;28;20033;-67
2022/09/19 10:29:49;;;;;;;2.30;0.70;;;;;;;;;;4553080;28;20025;-65
2022/09/19 10:32:07;;;;;;;1.38;0.45;;;;;;;;;;4569762;28;20110;-65
2022/09/19 10:34:51;;;;;;;1.73;0.40;;;;;;;;;;4533229;28;20044;-63
2022/09/19 10:37:14;;;;;;;1.77;0.50;;;;;;;;;;4569792;28;20032;-63
2022/09/19 10:39:26;;;;;;;0.93;0.40;;;;;;;;;;4559692;28;20717;-63
2022/09/19 10:41:40;;;;;;;1.95;0.45;;;;;;;;;;4569597;28;20031;-64
2022/09/19 10:43:53;;;;;;;1.48;0.43;;;;;;;;;;4560707;28;20035;-64
2022/09/19 10:46:07;;;;;;;0.90;0.35;;;;;;;;;;4560600;28;20034;-63
2022/09/19 10:48:30;;;;;;;1.33;0.40;;;;;;;;;;4564943;28;20602;-65
2022/09/19 10:50:43;;;;;;;0.93;0.40;;;;;;;;;;4552901;28;20039;-64
2022/09/19 10:53:03;;;;;;;1.63;0.40;;;;;;;;;;4544330;28;20144;-65
2022/09/19 10:55:20;;;;;;;1.25;0.40;;;;;;;;;;4563202;28;20194;-64
2022/09/19 10:57:44;;;;;;;;;;;;;;;;;;4548494;28;20076;-65
2022/09/19 11:00:02;;;;;;;2.67;0.52;;;;;;;;;;4546846;28;19962;-65
2022/09/19 11:02:23;;;;;;;1.67;0.60;;;;;;;;;;4563320;28;20075;-66
2022/09/19 11:04:36;;;;;;;1.42;0.60;;;;;;;;;;4558884;28;20036;-65
2022/09/19 11:06:59;;;;;;;3.42;0.70;;;;;;;;;;4559886;28;20021;-66
2022/09/19 11:09:26;;;;;;;2.05;0.70;;;;;;;;;;4559345;28;20232;-65
2022/09/19 11:11:47;;;;;;;1.92;0.60;;;;;;;;;;4569638;27;20036;-65
2022/09/19 11:14:35;;;;;;;1.52;0.60;;;;;;;;;;4560070;28;21274;-66
2022/09/19 11:17:00;;;;;;;1.95;0.65;;;;;;;;;;4562809;28;21035;-65
2022/09/19 11:19:26;;;;;;;1.40;0.50;;;;;;;;;;4560242;28;20578;-66
2022/09/19 11:22:09;;;;;;;2.63;0.70;;;;;;;;;;4528940;28;20029;-66
2022/09/19 11:24:23;;;;;;;2.22;0.57;;;;;;;;;;4509127;28;20530;-66
2022/09/19 11:26:44;;;;;;;2.92;0.75;;;;;;;;;;4559682;28;21116;-67
2022/09/19 11:29:36;;;;;;;1.52;0.50;;;;;;;;;;4536451;28;20035;-66
2022/09/19 11:32:03;;;;;;;2.17;0.60;;;;;;;;;;4548092;27;20044;-67
2022/09/19 11:34:36;;;;;;;1.85;0.50;;;;;;;;;;4548782;28;20797;-66
2022/09/19 11:37:09;;;;;;;1.58;0.40;;;;;;;;;;4558534;28;20033;-67
2022/09/19 11:39:38;;;;;;;0.68;0.40;;;;;;;;;;4568041;28;20093;-66
2022/09/19 11:42:05;;;;;;;1.48;0.40;;;;;;;;;;4556507;28;20051;-66
2022/09/19 11:44:29;;;;;;;2.90;0.50;;;;;;;;;;4551075;28;20119;-67
2022/09/19 11:46:52;;;;;;;0.73;0.30;;;;;;;;;;4547362;28;20040;-67
2022/09/19 11:49:13;;;;;;;2.33;0.50;;;;;;;;;;4568833;28;20315;-67
2022/09/19 11:51:47;;;;;;;1.13;0.32;;;;;;;;;;4559239;28;20149;-66
2022/09/19 11:54:18;;;;;;;1.63;0.40;;;;;;;;;;4568876;28;20043;-66
2022/09/19 11:56:53;;;;;;;1.63;0.55;;;;;;;;;;4552235;28;20039;-67
2022/09/19 11:59:06;;;;;;;1.52;0.40;;;;;;;;;;4560817;28;20084;-67
2022/09/19 12:01:23;;;;;;;1.33;0.60;;;;;;;;;;4558768;28;20101;-66
2022/09/19 12:03:50;;;;;;;1.98;0.57;;;;;;;;;;4559880;28;20027;-67
2022/09/19 12:06:20;;;;;;;0.98;0.35;;;;;;;;;;4546170;28;20032;-67
2022/09/19 12:08:44;;;;;;;2.03;0.50;;;;;;;;;;4549322;28;20075;-67
2022/09/19 12:11:08;;;;;;;1.70;0.55;;;;;;;;;;4568604;28;20039;-66
2022/09/19 12:13:47;;;;;;;1.35;0.30;;;;;;;;;;4563300;28;20036;-67
2022/09/19 12:16:06;;;;;;;0.85;0.40;;;;;;;;;;4535728;28;20081;-67
2022/09/19 12:18:42;;;;;;;2.85;0.55;;;;;;;;;;4570028;28;20048;-67
2022/09/19 12:20:55;;;;;;;1.92;0.40;;;;;;;;;;4544524;28;20033;-66
2022/09/19 12:26:18;;;;;;;1.58;0.40;;;;;;;;;;4561541;28;20083;-67
2022/09/19 12:28:30;;;;;;;;;;;;;;;;;;4542888;28;20025;-67
2022/09/19 12:30:46;;;;;;;2.10;0.50;;;;;;;;;;4560180;28;19916;-67
2022/09/19 12:33:16;;;;;;;1.38;0.28;;;;;;;;;;4557007;28;20048;-67
2022/09/19 12:35:30;;;;;;;1.63;0.40;;;;;;;;;;4562694;27;20369;-67
2022/09/19 12:37:58;;;;;;;1.17;0.50;;;;;;;;;;4558431;28;20600;-68
2022/09/19 12:40:29;;;;;;;1.20;0.40;;;;;;;;;;4558536;28;20549;-67
2022/09/19 12:42:47;;;;;;;1.30;0.32;;;;;;;;;;4559109;28;20032;-67
2022/09/19 12:45:10;;;;;;;1.63;0.30;;;;;;;;;;4573237;27;20086;-67
2022/09/19 12:47:32;;;;;;;0.60;0.32;;;;;;;;;;4568741;28;20126;-67
2022/09/19 12:49:56;;;;;;;1.30;0.30;;;;;;;;;;4562375;27;20043;-67
2022/09/19 12:52:12;;;;;;;1.75;0.30;;;;;;;;;;4560409;28;20131;-67
2022/09/19 12:54:52;;;;;;;0.65;0.40;;;;;;;;;;4561448;28;20055;-67
2022/09/19 12:57:16;;;;;;;1.17;0.32;;;;;;;;;;4535596;28;20048;-67
2022/09/19 12:59:27;;;;;;;0.88;0.40;;;;;;;;;;4564129;28;20091;-67
2022/09/19 13:01:43;;;;;;;1.45;0.32;;;;;;;;;;4559934;28;21030;-67
2022/09/19 13:04:03;;;;;;;1.00;0.30;;;;;;;;;;4560624;27;20033;-67
2022/09/19 13:06:18;;;;;;;1.63;0.40;;;;;;;;;;4562974;28;20038;-67
2022/09/19 13:08:48;;;;;;;1.60;0.38;;;;;;;;;;4563065;28;20858;-67
2022/09/19 13:11:13;;;;;;;0.70;0.30;;;;;;;;;;4564774;28;20082;-67
2022/09/19 13:13:28;;;;;;;1.55;0.32;;;;;;;;;;4562770;28;20036;-67
2022/09/19 13:15:47;;;;;;;1.17;0.28;;;;;;;;;;4556307;28;20076;-67
2022/09/19 13:23:47;;;;;;;1.05;0.40;;;;;;;;;;4562580;28;20101;-67
2022/09/19 13:25:33;;;;;;;0.80;0.30;;;;;;;;;;4552910;28;20441;-67
2022/09/19 13:27:45;;;;;;;1.10;0.40;;;;;;;;;;4562461;28;20584;-67
2022/09/19 13:29:59;;;;;;;1.65;0.30;;;;;;;;;;4564490;28;20042;-67
2022/09/19 13:32:27;;;;;;;1.27;0.38;;;;;;;;;;4562089;28;20487;-67
2022/09/19 13:35:08;;;;;;;0.68;0.30;;;;;;;;;;4565341;27;20064;-68
2022/09/19 13:37:34;;;;;;;1.50;0.30;;;;;;;;;;4562287;27;20060;-67
2022/09/19 13:39:51;;;;;;;1.40;0.43;;;;;;;;;;4561627;28;20067;-67
2022/09/19 13:42:02;;;;;;;1.15;0.30;;;;;;;;;;4562174;28;20560;-67
2022/09/19 13:44:28;;;;;;;0.45;0.20;;;;;;;;;;4560445;28;20256;-67
2022/09/19 13:46:44;;;;;;;0.17;0.17;;;;;;;;;;4562771;28;20063;-67
2022/09/19 13:49:00;;;;;;;0.77;0.30;;;;;;;;;;4561559;28;20774;-67
2022/09/19 13:51:28;;;;;;;0.32;0.17;;;;;;;;;;4559695;28;20953;-67
2022/09/19 13:53:44;;;;;;;0.35;0.15;;;;;;;;;;4561717;28;20031;-67
2022/09/19 13:55:59;;;;;;;0.17;0.10;;;;;;;;;;4561862;27;20087;-68
2022/09/19 13:58:35;;;;;;;0.75;0.20;;;;;;;;;;4544945;28;20404;-67
2022/09/19 14:01:06;;;;;;;0.38;0.20;;;;;;;;;;4563526;28;20044;-67
2022/09/19 14:03:30;;;;;;;0.55;0.30;;;;;;;;;;4564071;27;20119;-67
2022/09/19 14:05:41;;;;;;;0.20;0.20;;;;;;;;;;4560122;28;20032;-67
2022/09/19 14:07:57;;;;;;;0.85;0.20;;;;;;;;;;4560479;28;20032;-67
2022/09/19 14:10:14;;;;;;;0.88;0.20;;;;;;;;;;4563057;27;20135;-67
2022/09/19 14:12:34;;;;;;;1.73;0.30;;;;;;;;;;4562125;28;20089;-67
2022/09/19 14:14:49;;;;;;;0.93;0.30;;;;;;;;;;4562678;28;20573;-68
2022/09/19 14:17:18;;;;;;;0.70;0.30;;;;;;;;;;4562555;28;20028;-67
2022/09/19 14:19:48;;;;;;;0.85;0.28;;;;;;;;;;4562484;28;20039;-67
2022/09/19 14:21:59;;;;;;;0.80;0.40;;;;;;;;;;4558680;28;20459;-68